Πλησιέστερες Αναφορές METAR

 

LGTS - Thessaloniki/Makedonia-Elev 7m
Distance from station: Ν 13km
Ενημερώθηκε: 27/09/2022 08:20
Few Clouds
Few Clouds
 Ανεμος από ΝΑ
Ανεμος: ΝΑ 15 km/h
Θερμοκρασία: 22°C
Σημείο Δρόσου: 13°C
Υγρασία: 57%
Βαρόμετρο: 1005 hPa
Clouds: Few Clouds
Visibility: 10 km
Cloud details: Few Clouds 610 m
2022/09/27 05:20 LGTS 270520Z 14008KT 9999 FEW020TCU 22/13 Q1005 NOSIG
LGAV - Athens/Elef. Venizelos-Elev 94m
Distance from station: ΝΝΑ 312km
Ενημερώθηκε: 27/09/2022 08:20
Few Clouds
Few Clouds
 Ανεμος από calm
Ανεμος: Απνοια
Θερμοκρασία: 19°C
Σημείο Δρόσου: 14°C
Υγρασία: 73%
Βαρόμετρο: 1009 hPa
Clouds: Few Clouds
Visibility: 10 km
Cloud details: Few Clouds 914 m
2022/09/27 05:20 LGAV 270520Z 00000KT 9999 FEW030 19/14 Q1009 NOSIG
 
LGAL - Alexandroupolis-Elev 3m
Distance from station: Α 251km
Ενημερώθηκε: 27/09/2022 08:20
Σχεδόν νεφελώδης
Σχεδόν νεφελώδης
 Ανεμος από ΝΝΔ
Ανεμος: ΝΝΔ 28 km/h, Ριπή: 46 km/h
Θερμοκρασία: 21°C
Σημείο Δρόσου: 19°C
Υγρασία: 88%
Βαρόμετρο: 1006 hPa
Clouds: Σχεδόν νεφελώδης
Visibility: 10 km
Cloud details: Μερικώς νεφελώδης 762 m
Σχεδόν νεφελώδης 1829 m
2022/09/27 05:20 LGAL 270520Z 20015G25KT 9999 SCT025 BKN060 21/19 Q1006
LGKV - Kavala/Crysoupolis-Elev 5m
Distance from station: ΑΒΑ 144km
Ενημερώθηκε: 27/09/2022 08:20
Μερικώς νεφελώδης
Μερικώς νεφελώδης
 Ανεμος από ΒΑ
Ανεμος: ΒΑ 9 km/h
Θερμοκρασία: 19°C
Σημείο Δρόσου: 16°C
Υγρασία: 83%
Βαρόμετρο: 1005 hPa
Clouds: Μερικώς νεφελώδης
Visibility: 10 km
Cloud details: Few Clouds 762 m
Μερικώς νεφελώδης 2438 m
2022/09/27 05:20 LGKV 270520Z 04005KT 9999 FEW025 SCT080 19/16 Q1005
 
LGSK - Skiathos Island-Elev 15m
Distance from station: ΝΝΑ 168km
Ενημερώθηκε: 27/09/2022 07:50
Ασθενής βροχή, Μερικώς νεφελώδης
Ασθενής βροχή, Μερικώς νεφελώδης
 Ανεμος από calm
Ανεμος: Απνοια
Θερμοκρασία: 22°C
Σημείο Δρόσου: 16°C
Υγρασία: 69%
Βαρόμετρο: 1006 hPa
Συνθήκες: Ασθενής βροχή
Clouds: Μερικώς νεφελώδης
Visibility: 10 km
Cloud details: Few Clouds 610 m
Μερικώς νεφελώδης 914 m
2022/09/27 04:50 LGSK 270450Z 00000KT 9999 -RA FEW020 SCT030 22/16 Q1006
LGLM - Limnos Island-Elev 5m
Distance from station: ΑΝΑ 210km
Ενημερώθηκε: 27/09/2022 08:20
Μερικώς νεφελώδης
Μερικώς νεφελώδης
 Ανεμος από Ν
Ανεμος: Ν 26 km/h
Θερμοκρασία: 22°C
Σημείο Δρόσου: 19°C
Υγρασία: 83%
Βαρόμετρο: 1007 hPa
Clouds: Μερικώς νεφελώδης
Visibility: 10 km
Cloud details: Few Clouds 244 m
Μερικώς νεφελώδης 1067 m
2022/09/27 05:20 LGLM 270520Z 19014KT 9999 FEW008 SCT035 22/19 Q1007
 
LGMT - Mitilini Island-Elev 17m
Distance from station: ΑΝΑ 358km
Ενημερώθηκε: 27/09/2022 08:20
Μερικώς νεφελώδης
Μερικώς νεφελώδης
 Ανεμος από ΝΝΑ
Ανεμος: ΝΝΑ 20 km/h
Θερμοκρασία: 20°C
Σημείο Δρόσου: 15°C
Υγρασία: 73%
Βαρόμετρο: 1010 hPa
Clouds: Μερικώς νεφελώδης
Visibility: 10 km
Cloud details: Μερικώς νεφελώδης 762 m
2022/09/27 05:20 LGMT 270520Z 15011KT 9999 SCT025 20/15 Q1010
LGSY - Skiros Island-Elev 15m
Distance from station: ΝΑ 227km
Ενημερώθηκε: 27/09/2022 07:50
Few Clouds
Few Clouds
 Ανεμος από Ν
Ανεμος: Ν 19 km/h
Θερμοκρασία: 22°C
Σημείο Δρόσου: 15°C
Υγρασία: 65%
Βαρόμετρο: 1007 hPa
Clouds: Few Clouds
Visibility: 10 km
Cloud details: Few Clouds 762 m
2022/09/27 04:50 LGSY 270450Z 18010KT 9999 FEW025 22/15 Q1007 RMK BKN100 BKN200 BLU
 
LGKZ - Kozani-Elev 628m
Distance from station: ΔΝΔ 102km
Ενημερώθηκε: 27/09/2022 07:50
Μερικώς νεφελώδης
Μερικώς νεφελώδης
 Ανεμος από calm
Ανεμος: Απνοια
Θερμοκρασία: 17°C
Σημείο Δρόσου: 9°C
Υγρασία: 59%
Βαρόμετρο: 1007 hPa
Clouds: Μερικώς νεφελώδης
Visibility: 10 km
Cloud details: Μερικώς νεφελώδης 762 m
Μερικώς νεφελώδης 2134 m
2022/09/27 04:50 LGKZ 270450Z 00000KT 9999 SCT025 SCT070 17/09 Q1007
LGIO - Ioannina-Elev 476m
Distance from station: ΔΝΔ 209km
Ενημερώθηκε: 27/09/2022 08:20

 Ανεμος από ΝΑ
Ανεμος: ΝΑ 9 km/h
Θερμοκρασία: 16°C
Σημείο Δρόσου: 15°C
Υγρασία: 94%
Βαρόμετρο: 1009 hPa
2022/09/27 05:20 LGIO 270520Z AUTO 14005KT 110V170 //// // ////// 16/15 Q1009 RERA
 
LGZA - Zakinthos-Elev 3m
Distance from station: ΝΝΔ 367km
Ενημερώθηκε: 27/09/2022 08:20
Βροχή, Συννεφιά
Βροχή, Συννεφιά
 Ανεμος από ΝΑ
Ανεμος: ΝΑ 37 km/h, Ριπή: 56 km/h
Θερμοκρασία: 22°C
Σημείο Δρόσου: 21°C
Υγρασία: 94%
Βαρόμετρο: 1007 hPa
Συνθήκες: Βροχή
Clouds: Συννεφιά
Visibility: 6 km
Cloud details: Μερικώς νεφελώδης 305 m
Few Clouds 488 m
Σχεδόν νεφελώδης 549 m
Συννεφιά 2134 m
2022/09/27 05:20 LGZA 270520Z 13020G30KT 6000 RA SCT010 FEW016TCU BKN018 OVC070 22/21 Q1007
LGKR - Corfu Island-Elev 2m
Distance from station: ΔΝΔ 282km
Ενημερώθηκε: 27/09/2022 08:20
Σχεδόν νεφελώδης
Σχεδόν νεφελώδης
 Ανεμος από ΝΝΑ
Ανεμος: ΝΝΑ 26 km/h
Θερμοκρασία: 20°C
Σημείο Δρόσου: 18°C
Υγρασία: 88%
Βαρόμετρο: 1005 hPa
Clouds: Σχεδόν νεφελώδης
Visibility: 7 km
Cloud details: Σχεδόν νεφελώδης 366 m
Few Clouds 488 m
Σχεδόν νεφελώδης 610 m
Σχεδόν νεφελώδης 2438 m
2022/09/27 05:20 LGKR 270520Z 15014KT 7000 BKN012 FEW016TCU BKN020 BKN080 20/18 Q1005 TEMPO RA
 
LGSO - Syros Island-Elev 72m
Distance from station: ΝΝΑ 397km
Ενημερώθηκε: 27/09/2022 07:50
Μερικώς νεφελώδης
Μερικώς νεφελώδης
 Ανεμος από ΝΔ
Ανεμος: ΝΔ 26 km/h
Θερμοκρασία: 22°C
Σημείο Δρόσου: 17°C
Υγρασία: 73%
Βαρόμετρο: 1010 hPa
Clouds: Μερικώς νεφελώδης
Visibility: 10 km
Cloud details: Few Clouds 366 m
Μερικώς νεφελώδης 488 m
2022/09/27 04:50 LGSO 270450Z 23014KT 9999 FEW012 SCT016 22/17 Q1010
LGMK - Mikonos Island-Elev 123m
Distance from station: ΝΝΑ 412km
Ενημερώθηκε: 27/09/2022 08:20
Μερικώς νεφελώδης
Μερικώς νεφελώδης
 Ανεμος από varies
Ανεμος: varies 0 km/h
Θερμοκρασία: 22°C
Σημείο Δρόσου: 15°C
Υγρασία: 65%
Βαρόμετρο: 1010 hPa
Clouds: Μερικώς νεφελώδης
Visibility: 10 km
Cloud details: Μερικώς νεφελώδης 610 m
2022/09/27 05:20 LGMK 270520Z /////KT 9999 SCT020 22/15 Q1010
 
LGSR - Santorini Island-Elev 40m
Distance from station: ΝΝΑ 520km
Ενημερώθηκε: 27/09/2022 08:20
Αίθριος
Αίθριος
 Ανεμος από ΝΝΑ
Ανεμος: ΝΝΑ 11 km/h
Θερμοκρασία: 21°C
Σημείο Δρόσου: 16°C
Υγρασία: 73%
Βαρόμετρο: 1012 hPa
Συνθήκες: Αίθριος
Visibility: greater than 10 km
2022/09/27 05:20 LGSR 270520Z 15006KT CAVOK 21/16 Q1012
LGKL - Kalamata-Elev 8m
Distance from station: Ν 405km
Ενημερώθηκε: 27/09/2022 08:20
Σχεδόν νεφελώδης
Σχεδόν νεφελώδης
 Ανεμος από calm
Ανεμος: Απνοια
Θερμοκρασία: 18°C
Σημείο Δρόσου: 14°C
Υγρασία: 78%
Βαρόμετρο: 1011 hPa
Clouds: Σχεδόν νεφελώδης
Visibility: 10 km
Cloud details: Few Clouds 762 m
Σχεδόν νεφελώδης 914 m
Σχεδόν νεφελώδης 2438 m
2022/09/27 05:20 LGKL 270520Z 00000KT 9999 FEW025 BKN030 BKN080 18/14 Q1011
 
LGIR - Iraklion/Crete-Elev 5m
Distance from station: ΝΝΑ 622km
Ενημερώθηκε: 27/09/2022 08:20
Αίθριος
Αίθριος
 Ανεμος από ΝΝΑ
Ανεμος: ΝΝΑ 19 km/h
Θερμοκρασία: 20°C
Σημείο Δρόσου: 15°C
Υγρασία: 73%
Βαρόμετρο: 1012 hPa
Συνθήκες: Αίθριος
Visibility: greater than 10 km
2022/09/27 05:20 LGIR 270520Z 16010KT CAVOK 20/15 Q1012 NOSIG
LGRP - Rhodes-Elev 5m
Distance from station: ΝΑ 649km
Ενημερώθηκε: 27/09/2022 08:20
Αίθριος
Αίθριος
 Ανεμος από calm
Ανεμος: Απνοια
Θερμοκρασία: 17°C
Σημείο Δρόσου: 10°C
Υγρασία: 64%
Βαρόμετρο: 1012 hPa
Συνθήκες: Αίθριος
Visibility: greater than 10 km
2022/09/27 05:20 LGRP 270520Z 00000KT CAVOK 17/10 Q1012 NOSIG
 
LWOH - Ohrid/FYROM-Elev 761m
Distance from station: ΔΒΔ 188km
Ενημερώθηκε: 27/09/2022 08:30
Σχεδόν νεφελώδης
Σχεδόν νεφελώδης
 Ανεμος από Ν
Ανεμος: Ν 19 km/h
Θερμοκρασία: 19°C
Σημείο Δρόσου: 14°C
Υγρασία: 73%
Βαρόμετρο: 1006 hPa
Clouds: Σχεδόν νεφελώδης
Visibility: 10 km
Cloud details: Μερικώς νεφελώδης 610 m
Σχεδόν νεφελώδης 1219 m
2022/09/27 05:30 LWOH 270530Z 17010KT 9999 SCT020 BKN040 19/14 Q1006
LBSF - Sofia/Bulgaria-Elev 595m
Distance from station: Β 227km
Ενημερώθηκε: 27/09/2022 08:30
Ασθενής βροχή, Συννεφιά
Ασθενής βροχή, Συννεφιά
 Ανεμος από ΑΒΑ
Ανεμος: ΑΒΑ 9 km/h
Θερμοκρασία: 14°C
Σημείο Δρόσου: 13°C
Υγρασία: 94%
Βαρόμετρο: 1005 hPa
Συνθήκες: Ασθενής βροχή
Clouds: Συννεφιά
Visibility: 7 km
Cloud details: Few Clouds 1798 m
Συννεφιά 2347 m
2022/09/27 05:30 LBSF 270530Z 07005KT 7000 -RA FEW059 OVC077 14/13 Q1005 NOSIG
Σημερινά ρεκόρ Μετεωρολογικού Σταθμού
Η μέγιστη μέση ταχύτητα ανέμου των 92.60 km/h ξεπέρασε το Μέγιστο ρεκόρ σταθμού όλων των εποχών των 91.86 km/h που σημειώθηκε στις 05/09/2022 κατά 0.73999999999999 km/h
Η Ελάχιστη τιμή Σημείου Δρόσου των -16.7°C ισοφάρισε το ρεκόρ Μήνα που σημειώθηκε στις 23/09/2022